createdAt,value
2022-11-07T00:01:23.231Z,12.70
2022-11-07T00:03:53.742Z,12.70
2022-11-07T00:06:21.127Z,12.70
2022-11-07T00:08:49.439Z,12.70
2022-11-07T00:11:16.731Z,12.70
2022-11-07T00:13:44.072Z,12.70
2022-11-07T00:16:11.939Z,12.70
2022-11-07T00:18:39.334Z,12.70
2022-11-07T00:21:09.851Z,12.70
2022-11-07T00:23:40.244Z,12.70
2022-11-07T00:26:13.753Z,12.70
2022-11-07T00:28:42.642Z,12.70
2022-11-07T00:31:12.601Z,12.70
2022-11-07T00:33:40.822Z,12.60
2022-11-07T00:36:09.323Z,12.70
2022-11-07T00:38:37.100Z,12.70
2022-11-07T00:41:06.539Z,12.70
2022-11-07T00:43:34.368Z,12.70
2022-11-07T00:46:07.417Z,12.70
2022-11-07T00:48:35.427Z,12.70
2022-11-07T00:51:23.699Z,12.70
2022-11-07T00:53:51.680Z,12.70
2022-11-07T00:56:22.661Z,12.70
2022-11-07T00:58:54.201Z,12.70
2022-11-07T01:01:27.377Z,12.60
2022-11-07T01:04:14.131Z,12.60
2022-11-07T01:06:43.138Z,12.60
2022-11-07T01:09:14.251Z,12.50
2022-11-07T01:11:42.272Z,12.40
2022-11-07T01:14:11.543Z,12.40
2022-11-07T01:16:39.111Z,12.30
2022-11-07T01:19:06.989Z,12.30
2022-11-07T01:21:34.849Z,12.30
2022-11-07T01:24:03.578Z,12.30
2022-11-07T01:26:30.855Z,12.30
2022-11-07T01:28:58.225Z,12.20
2022-11-07T01:31:25.930Z,12.20
2022-11-07T01:33:53.264Z,12.10
2022-11-07T01:36:20.553Z,12.20
2022-11-07T01:38:48.676Z,12.10
2022-11-07T01:41:27.928Z,12.10
2022-11-07T01:43:55.205Z,12.10
2022-11-07T01:46:26.727Z,12.00
2022-11-07T01:49:05.510Z,12.00
2022-11-07T01:51:38.830Z,11.90
2022-11-07T01:54:06.677Z,11.90
2022-11-07T01:56:37.104Z,11.80
2022-11-07T01:59:05.902Z,11.80
2022-11-07T02:01:33.427Z,11.70
2022-11-07T02:04:01.880Z,11.60
2022-11-07T02:06:37.754Z,11.60
2022-11-07T02:09:05.437Z,11.60
2022-11-07T02:11:33.787Z,11.60
2022-11-07T02:14:01.122Z,11.50
2022-11-07T02:16:29.354Z,11.50
2022-11-07T02:18:56.891Z,11.50
2022-11-07T02:21:59.171Z,11.50
2022-11-07T02:24:33.086Z,11.50
2022-11-07T02:27:04.236Z,11.40
2022-11-07T02:29:33.463Z,11.40
2022-11-07T02:32:09.800Z,11.40
2022-11-07T02:34:37.913Z,11.40
2022-11-07T02:37:25.340Z,11.40
2022-11-07T02:39:53.006Z,11.40
2022-11-07T02:42:20.704Z,11.30
2022-11-07T02:44:48.627Z,11.30
2022-11-07T02:47:16.400Z,11.30
2022-11-07T02:49:43.964Z,11.30
2022-11-07T02:52:11.545Z,11.20
2022-11-07T02:54:39.138Z,11.20
2022-11-07T02:57:06.620Z,11.20
2022-11-07T02:59:34.354Z,11.20
2022-11-07T03:02:01.865Z,11.10
2022-11-07T03:04:29.556Z,11.10
2022-11-07T03:06:57.091Z,11.10
2022-11-07T03:09:24.661Z,11.10
2022-11-07T03:11:53.273Z,11.10
2022-11-07T03:14:20.780Z,11.00
2022-11-07T03:16:48.399Z,11.00
2022-11-07T03:19:16.459Z,11.00
2022-11-07T03:21:44.034Z,11.00
2022-11-07T03:24:11.669Z,11.00
2022-11-07T03:26:39.202Z,11.00
2022-11-07T03:29:07.336Z,10.90
2022-11-07T03:31:35.409Z,10.90
2022-11-07T03:34:03.655Z,10.80
2022-11-07T03:36:31.276Z,10.80
2022-11-07T03:38:58.860Z,10.80
2022-11-07T03:41:26.451Z,10.90
2022-11-07T03:43:54.055Z,10.80
2022-11-07T03:46:21.710Z,10.90
2022-11-07T03:48:49.249Z,10.90
2022-11-07T03:51:16.772Z,10.90
2022-11-07T03:53:44.486Z,10.80
2022-11-07T03:56:12.718Z,10.80
2022-11-07T03:58:40.348Z,10.80
2022-11-07T04:01:10.400Z,10.80
2022-11-07T04:03:37.958Z,10.80
2022-11-07T04:06:05.796Z,10.70
2022-11-07T04:08:33.394Z,10.70
2022-11-07T04:11:00.970Z,10.60
2022-11-07T04:13:47.277Z,10.60
2022-11-07T04:16:36.648Z,10.50
2022-11-07T04:19:04.370Z,10.50
2022-11-07T04:21:31.840Z,10.60
2022-11-07T04:23:59.609Z,10.60
2022-11-07T04:26:45.617Z,10.50
2022-11-07T04:29:13.221Z,10.50
2022-11-07T04:31:40.670Z,10.50
2022-11-07T04:34:08.262Z,10.40
2022-11-07T04:36:36.311Z,10.40
2022-11-07T04:39:04.016Z,10.40
2022-11-07T04:41:31.531Z,10.30
2022-11-07T04:43:59.070Z,10.40
2022-11-07T04:46:26.587Z,10.40
2022-11-07T04:48:54.099Z,10.40
2022-11-07T04:51:22.788Z,10.40
2022-11-07T04:53:50.272Z,10.40
2022-11-07T04:56:17.791Z,10.40
2022-11-07T04:58:45.436Z,10.40
2022-11-07T05:01:13.208Z,10.40
2022-11-07T05:03:42.249Z,10.40
2022-11-07T05:06:14.643Z,10.40
2022-11-07T05:08:42.141Z,10.30
2022-11-07T05:11:09.915Z,10.40
2022-11-07T05:13:37.660Z,10.30
2022-11-07T05:16:05.534Z,10.20
2022-11-07T05:18:33.154Z,10.20
2022-11-07T05:21:00.647Z,10.20
2022-11-07T05:23:28.614Z,10.20
2022-11-07T05:25:56.921Z,10.20
2022-11-07T05:28:38.664Z,10.20
2022-11-07T05:31:08.888Z,10.10
2022-11-07T05:33:36.780Z,10.10
2022-11-07T05:36:13.121Z,10.20
2022-11-07T05:38:42.812Z,10.20
2022-11-07T05:41:11.220Z,10.30
2022-11-07T05:43:40.207Z,10.30
2022-11-07T05:46:08.701Z,10.30
2022-11-07T05:48:36.853Z,10.30
2022-11-07T05:51:06.274Z,10.40
2022-11-07T05:53:34.339Z,10.40
2022-11-07T05:56:02.050Z,10.40
2022-11-07T05:58:29.682Z,10.40
2022-11-07T06:01:01.743Z,10.30
2022-11-07T06:03:29.336Z,10.30
2022-11-07T06:05:57.120Z,10.30
2022-11-07T06:08:24.840Z,10.30
2022-11-07T06:10:52.462Z,10.30
2022-11-07T06:13:20.166Z,10.30
2022-11-07T06:15:47.738Z,10.30
2022-11-07T06:18:19.011Z,10.40
2022-11-07T06:20:47.123Z,10.40
2022-11-07T06:23:15.098Z,10.40
2022-11-07T06:25:43.300Z,10.40
2022-11-07T06:28:12.559Z,10.40
2022-11-07T06:30:40.532Z,10.40
2022-11-07T06:33:12.886Z,10.40
2022-11-07T06:35:41.085Z,10.50
2022-11-07T06:38:11.448Z,10.50
2022-11-07T06:40:40.952Z,10.60
2022-11-07T06:43:18.033Z,10.70
2022-11-07T06:45:47.510Z,10.70
2022-11-07T06:48:15.368Z,10.80
2022-11-07T06:50:42.998Z,10.80
2022-11-07T06:53:14.061Z,10.90
2022-11-07T06:55:42.764Z,10.90
2022-11-07T06:58:10.400Z,11.00
2022-11-07T07:00:38.147Z,11.00
2022-11-07T07:03:06.249Z,11.10
2022-11-07T07:05:34.824Z,11.20
2022-11-07T07:08:03.728Z,11.20
2022-11-07T07:10:31.627Z,11.30
2022-11-07T07:13:07.412Z,11.30
2022-11-07T07:15:49.712Z,11.40
2022-11-07T07:18:19.268Z,11.40
2022-11-07T07:20:48.673Z,11.50
2022-11-07T07:23:21.011Z,11.60
2022-11-07T07:25:49.362Z,11.70
2022-11-07T07:28:16.840Z,11.80
2022-11-07T07:30:50.312Z,11.90
2022-11-07T07:33:20.271Z,11.90
2022-11-07T07:35:47.837Z,12.00
2022-11-07T07:38:15.528Z,12.10
2022-11-07T07:40:43.019Z,12.10
2022-11-07T07:43:10.669Z,12.20
2022-11-07T07:45:38.172Z,12.30
2022-11-07T07:48:06.125Z,12.30
2022-11-07T07:50:33.650Z,12.40
2022-11-07T07:53:06.180Z,12.40
2022-11-07T07:55:35.782Z,12.50
2022-11-07T07:58:03.585Z,12.50
2022-11-07T08:00:31.113Z,12.60
2022-11-07T08:03:10.459Z,12.60
2022-11-07T08:05:39.333Z,12.70
2022-11-07T08:08:08.124Z,12.80
2022-11-07T08:10:42.024Z,12.80
2022-11-07T08:13:10.601Z,12.90
2022-11-07T08:15:38.332Z,13.00
2022-11-07T08:18:06.201Z,13.00
2022-11-07T08:20:33.865Z,13.20
2022-11-07T08:23:11.245Z,13.30
2022-11-07T08:25:42.863Z,13.50
2022-11-07T08:28:10.416Z,13.80
2022-11-07T08:30:37.898Z,14.10
2022-11-07T08:33:05.604Z,14.40
2022-11-07T08:35:36.889Z,14.70
2022-11-07T08:38:07.164Z,15.00
2022-11-07T08:40:34.838Z,15.30
2022-11-07T08:43:02.507Z,15.60
2022-11-07T08:45:30.015Z,15.80
2022-11-07T08:47:58.828Z,15.80
2022-11-07T08:50:27.342Z,15.90
2022-11-07T08:52:59.582Z,16.10
2022-11-07T08:55:30.220Z,16.20
2022-11-07T08:58:08.373Z,16.10
2022-11-07T09:00:36.549Z,15.90
2022-11-07T09:05:53.642Z,15.50
2022-11-07T09:08:21.152Z,15.30
2022-11-07T09:10:48.717Z,15.30
2022-11-07T09:13:16.476Z,15.10
2022-11-07T09:15:50.381Z,15.10
2022-11-07T09:18:19.622Z,15.20
2022-11-07T09:20:47.747Z,15.30
2022-11-07T09:23:15.580Z,15.30
2022-11-07T09:25:43.658Z,15.40
2022-11-07T09:28:11.340Z,15.60
2022-11-07T09:30:39.434Z,15.80
2022-11-07T09:33:07.087Z,16.00
2022-11-07T09:35:34.808Z,16.20
2022-11-07T09:38:02.379Z,16.60
2022-11-07T09:40:40.740Z,16.90
2022-11-07T09:43:08.455Z,17.30
2022-11-07T09:46:06.199Z,17.90
2022-11-07T09:48:42.786Z,18.90
2022-11-07T09:51:31.343Z,20.00
2022-11-07T09:54:15.157Z,21.60
2022-11-07T09:56:56.316Z,23.00
2022-11-07T09:59:47.115Z,24.60
2022-11-07T10:02:16.614Z,25.90
2022-11-07T10:04:45.987Z,26.70
2022-11-07T10:07:17.736Z,27.30
2022-11-07T10:09:54.137Z,27.80
2022-11-07T10:12:41.794Z,28.20
2022-11-07T10:15:33.418Z,28.70
2022-11-07T10:18:19.600Z,28.70
2022-11-07T10:21:35.993Z,29.00
2022-11-07T10:24:28.146Z,29.80
2022-11-07T10:26:57.618Z,30.30
2022-11-07T10:29:40.332Z,30.60
2022-11-07T10:32:34.851Z,30.80
2022-11-07T10:35:19.125Z,31.20
2022-11-07T10:37:54.968Z,31.50
2022-11-07T10:40:24.226Z,31.80
2022-11-07T10:42:54.233Z,31.30
2022-11-07T10:45:23.893Z,31.10
2022-11-07T10:48:02.953Z,31.00
2022-11-07T10:50:31.125Z,32.20
2022-11-07T10:53:09.805Z,32.90
2022-11-07T10:55:46.156Z,33.50
2022-11-07T10:58:21.122Z,33.70
2022-11-07T11:01:09.240Z,34.00
2022-11-07T11:03:44.701Z,34.70
2022-11-07T11:06:18.945Z,35.30
2022-11-07T11:08:49.248Z,35.60
2022-11-07T11:11:29.779Z,35.60
2022-11-07T11:14:13.801Z,35.90
2022-11-07T11:16:42.985Z,36.00
2022-11-07T11:19:23.962Z,36.20
2022-11-07T11:21:53.861Z,36.40
2022-11-07T11:24:30.792Z,36.50
2022-11-07T11:27:12.806Z,36.20
2022-11-07T11:29:59.048Z,36.70
2022-11-07T11:32:32.859Z,37.20
2022-11-07T11:35:05.063Z,37.20
2022-11-07T11:37:38.718Z,37.50
2022-11-07T11:40:13.327Z,37.90
2022-11-07T11:43:14.272Z,38.20
2022-11-07T11:45:57.773Z,38.30
2022-11-07T11:48:32.434Z,38.70
2022-11-07T11:51:13.215Z,38.80
2022-11-07T11:53:41.758Z,39.20
2022-11-07T11:56:44.622Z,39.30
2022-11-07T11:59:20.375Z,39.40
2022-11-07T12:02:10.941Z,39.50
2022-11-07T12:04:49.742Z,39.50
2022-11-07T12:07:58.812Z,39.80
2022-11-07T12:10:29.982Z,39.90
2022-11-07T12:13:06.667Z,40.00
2022-11-07T12:15:41.728Z,40.00
2022-11-07T12:18:29.600Z,40.20
2022-11-07T12:21:08.684Z,40.10
2022-11-07T12:23:57.855Z,40.50
2022-11-07T12:26:43.966Z,40.40
2022-11-07T12:29:23.581Z,40.50
2022-11-07T12:32:03.043Z,40.70
2022-11-07T12:34:52.209Z,40.00
2022-11-07T12:37:31.825Z,40.20
2022-11-07T12:40:24.984Z,40.90
2022-11-07T12:42:59.758Z,40.90
2022-11-07T12:45:30.669Z,41.00
2022-11-07T12:48:20.620Z,41.30
2022-11-07T12:51:05.481Z,41.40
2022-11-07T12:53:50.149Z,41.00
2022-11-07T12:56:27.566Z,40.60
2022-11-07T12:58:55.665Z,40.30
2022-11-07T13:01:33.487Z,40.10
2022-11-07T13:04:13.732Z,39.90
2022-11-07T13:06:53.611Z,40.00
2022-11-07T13:09:50.111Z,39.60
2022-11-07T13:12:48.882Z,38.10
2022-11-07T13:15:16.726Z,35.50
2022-11-07T13:17:46.419Z,33.60
2022-11-07T13:20:23.408Z,32.40
2022-11-07T13:22:56.992Z,30.80
2022-11-07T13:25:29.267Z,29.50
2022-11-07T13:27:57.007Z,27.90
2022-11-07T13:30:30.501Z,26.80
2022-11-07T13:33:00.653Z,25.90
2022-11-07T13:35:37.006Z,25.10
2022-11-07T13:38:18.647Z,24.40
2022-11-07T13:41:02.004Z,23.40
2022-11-07T13:43:45.891Z,23.00
2022-11-07T13:46:28.477Z,22.80
2022-11-07T13:49:01.257Z,22.70
2022-11-07T13:51:40.317Z,22.60
2022-11-07T13:54:17.073Z,22.40
2022-11-07T13:57:23.522Z,22.40
2022-11-07T13:59:55.720Z,22.20
2022-11-07T14:02:28.912Z,22.00
2022-11-07T14:05:17.293Z,21.90
2022-11-07T14:07:54.301Z,21.90
2022-11-07T14:10:29.973Z,21.80
2022-11-07T14:13:20.948Z,21.70
2022-11-07T14:15:53.272Z,21.60
2022-11-07T14:18:27.286Z,21.50
2022-11-07T14:20:57.243Z,21.50
2022-11-07T14:23:28.321Z,21.40
2022-11-07T14:25:58.893Z,21.30
2022-11-07T14:28:35.040Z,21.20
2022-11-07T14:31:06.975Z,21.20
2022-11-07T14:33:34.978Z,21.10
2022-11-07T14:36:06.764Z,21.00
2022-11-07T14:38:34.474Z,21.00
2022-11-07T14:41:02.725Z,20.90
2022-11-07T14:43:31.388Z,20.90
2022-11-07T14:46:12.321Z,20.80
2022-11-07T14:48:42.476Z,20.80
2022-11-07T14:51:13.542Z,20.70
2022-11-07T14:54:09.033Z,20.70
2022-11-07T14:56:43.459Z,20.60
2022-11-07T14:59:15.947Z,20.50
2022-11-07T15:01:59.997Z,20.30
2022-11-07T15:04:36.637Z,20.20
2022-11-07T15:07:22.659Z,20.10
2022-11-07T15:09:51.843Z,20.00
2022-11-07T15:12:25.408Z,19.90
2022-11-07T15:15:17.060Z,19.70
2022-11-07T15:17:48.269Z,19.70
2022-11-07T15:20:39.875Z,19.60
2022-11-07T15:23:34.911Z,19.50
2022-11-07T15:26:08.541Z,19.40
2022-11-07T15:28:42.546Z,19.30
2022-11-07T15:31:29.862Z,19.20
2022-11-07T15:33:59.205Z,19.10
2022-11-07T15:36:26.935Z,19.00
2022-11-07T15:38:56.340Z,18.90
2022-11-07T15:41:23.943Z,18.90
2022-11-07T15:43:51.564Z,18.80
2022-11-07T15:46:47.100Z,18.80
2022-11-07T15:49:14.651Z,18.70
2022-11-07T15:51:42.181Z,18.60
2022-11-07T15:54:13.343Z,18.50
2022-11-07T15:56:42.037Z,18.50
2022-11-07T15:59:19.187Z,18.40
2022-11-07T16:01:47.288Z,18.30
2022-11-07T16:04:15.914Z,18.20
2022-11-07T16:06:46.172Z,18.20
2022-11-07T16:09:17.778Z,18.10
2022-11-07T16:11:46.588Z,18.00
2022-11-07T16:14:42.267Z,17.90
2022-11-07T16:17:04.156Z,17.80
2022-11-07T16:19:31.697Z,17.70
2022-11-07T16:21:59.298Z,17.60
2022-11-07T16:24:26.791Z,17.50
2022-11-07T16:26:54.499Z,17.50
2022-11-07T16:29:22.136Z,17.40
2022-11-07T16:31:49.588Z,17.30
2022-11-07T16:34:17.206Z,17.20
2022-11-07T16:36:47.407Z,17.20
2022-11-07T16:39:23.131Z,17.10
2022-11-07T16:41:50.737Z,17.10
2022-11-07T16:44:25.591Z,17.00
2022-11-07T16:46:56.467Z,16.90
2022-11-07T16:49:30.867Z,16.80
2022-11-07T16:51:58.816Z,16.70
2022-11-07T16:54:26.689Z,16.70
2022-11-07T16:56:54.442Z,16.60
2022-11-07T16:59:24.304Z,16.40
2022-11-07T17:01:52.380Z,16.30
2022-11-07T17:04:20.147Z,16.30
2022-11-07T17:06:47.889Z,16.20
2022-11-07T17:09:20.323Z,16.10
2022-11-07T17:11:49.115Z,16.00
2022-11-07T17:14:16.568Z,16.00
2022-11-07T17:16:47.763Z,16.00
2022-11-07T17:19:15.653Z,16.00
2022-11-07T17:21:46.595Z,15.90
2022-11-07T17:24:14.358Z,15.90
2022-11-07T17:26:41.960Z,15.90
2022-11-07T17:29:13.502Z,15.80
2022-11-07T17:31:42.241Z,15.80
2022-11-07T17:34:10.138Z,15.80
2022-11-07T17:36:43.117Z,15.80
2022-11-07T17:39:19.690Z,15.70
2022-11-07T17:41:50.392Z,15.70
2022-11-07T17:44:19.039Z,15.60
2022-11-07T17:46:49.369Z,15.60
2022-11-07T17:49:19.331Z,15.50
2022-11-07T17:51:47.663Z,15.50
2022-11-07T17:54:15.920Z,15.40
2022-11-07T17:56:43.803Z,15.40
2022-11-07T17:59:14.870Z,15.40
2022-11-07T18:01:43.260Z,15.30
2022-11-07T18:04:12.794Z,15.30
2022-11-07T18:06:42.517Z,15.20
2022-11-07T18:09:15.080Z,15.10
2022-11-07T18:11:43.842Z,15.10
2022-11-07T18:14:14.165Z,15.10
2022-11-07T18:16:41.805Z,15.10
2022-11-07T18:19:09.808Z,15.10
2022-11-07T18:21:37.385Z,15.10
2022-11-07T18:24:05.388Z,15.10
2022-11-07T18:26:33.996Z,15.00
2022-11-07T18:29:08.093Z,15.00
2022-11-07T18:31:38.220Z,15.00
2022-11-07T18:34:08.843Z,15.00
2022-11-07T18:36:39.827Z,14.90
2022-11-07T18:39:12.687Z,14.90
2022-11-07T18:41:40.685Z,14.90
2022-11-07T18:44:09.581Z,14.90
2022-11-07T18:46:38.079Z,14.90
2022-11-07T18:49:14.472Z,14.90
2022-11-07T18:51:45.276Z,14.90
2022-11-07T18:54:14.008Z,14.80
2022-11-07T18:56:42.985Z,14.80
2022-11-07T18:59:11.331Z,14.80
2022-11-07T19:01:39.200Z,14.80
2022-11-07T19:04:07.604Z,14.80
2022-11-07T19:06:37.007Z,14.70
2022-11-07T19:09:04.677Z,14.70
2022-11-07T19:11:34.077Z,14.70
2022-11-07T19:14:02.973Z,14.70
2022-11-07T19:16:30.963Z,14.60
2022-11-07T19:19:00.008Z,14.60
2022-11-07T19:21:27.896Z,14.50
2022-11-07T19:23:55.550Z,14.50
2022-11-07T19:26:24.913Z,14.40
2022-11-07T19:28:57.384Z,14.40
2022-11-07T19:31:25.158Z,14.30
2022-11-07T19:33:52.841Z,14.20
2022-11-07T19:36:23.506Z,14.20
2022-11-07T19:38:51.214Z,14.10
2022-11-07T19:41:19.496Z,14.00
2022-11-07T19:44:20.467Z,14.00
2022-11-07T19:46:53.222Z,13.90
2022-11-07T19:49:21.096Z,13.90
2022-11-07T19:51:49.058Z,13.90
2022-11-07T19:54:16.603Z,13.90
2022-11-07T19:56:44.426Z,13.80
2022-11-07T19:59:12.124Z,13.70
2022-11-07T20:01:39.926Z,13.80
2022-11-07T20:04:08.894Z,13.70
2022-11-07T20:06:38.036Z,13.70
2022-11-07T20:09:09.206Z,13.60
2022-11-07T20:11:36.888Z,13.60
2022-11-07T20:14:04.654Z,13.60
2022-11-07T20:16:33.617Z,13.50
2022-11-07T20:19:01.897Z,13.50
2022-11-07T20:21:30.369Z,13.50
2022-11-07T20:23:59.854Z,13.40
2022-11-07T20:26:29.672Z,13.30
2022-11-07T20:28:58.242Z,13.30
2022-11-07T20:31:34.810Z,13.30
2022-11-07T20:34:04.718Z,13.30
2022-11-07T20:36:33.101Z,13.30
2022-11-07T20:39:02.247Z,13.30
2022-11-07T20:41:30.784Z,13.20
2022-11-07T20:44:04.289Z,13.20
2022-11-07T20:46:35.299Z,13.20
2022-11-07T20:49:05.261Z,13.20
2022-11-07T20:51:33.565Z,13.10
2022-11-07T20:54:01.338Z,13.10
2022-11-07T20:56:29.799Z,13.10
2022-11-07T20:58:59.164Z,13.10
2022-11-07T21:01:37.494Z,13.10
2022-11-07T21:04:14.387Z,13.00
2022-11-07T21:06:42.509Z,13.00
2022-11-07T21:09:10.844Z,13.00
2022-11-07T21:11:39.654Z,12.90
2022-11-07T21:14:07.888Z,12.90
2022-11-07T21:16:35.951Z,12.90
2022-11-07T21:19:05.238Z,12.80
2022-11-07T21:21:33.807Z,12.80
2022-11-07T21:24:02.093Z,12.80
2022-11-07T21:26:35.656Z,12.80
2022-11-07T21:29:06.650Z,12.80
2022-11-07T21:31:36.147Z,12.80
2022-11-07T21:34:04.623Z,12.70
2022-11-07T21:36:32.663Z,12.70
2022-11-07T21:39:01.482Z,12.70
2022-11-07T21:41:30.452Z,12.70
2022-11-07T21:43:58.827Z,12.70
2022-11-07T21:46:37.169Z,12.70
2022-11-07T21:49:06.472Z,12.60
2022-11-07T21:51:37.112Z,12.60
2022-11-07T21:54:05.996Z,12.70
2022-11-07T21:56:36.910Z,12.60
2022-11-07T21:59:10.040Z,12.70
2022-11-07T22:01:39.526Z,12.70
2022-11-07T22:04:12.691Z,12.60
2022-11-07T22:06:43.720Z,12.60
2022-11-07T22:09:18.630Z,12.60
2022-11-07T22:11:46.472Z,12.50
2022-11-07T22:14:17.369Z,12.60
2022-11-07T22:16:45.380Z,12.60
2022-11-07T22:19:13.327Z,12.50
2022-11-07T22:21:41.669Z,12.50
2022-11-07T22:24:10.048Z,12.50
2022-11-07T22:26:37.721Z,12.50
2022-11-07T22:29:06.426Z,12.50
2022-11-07T22:31:36.338Z,12.50
2022-11-07T22:34:04.476Z,12.40
2022-11-07T22:36:32.217Z,12.40
2022-11-07T22:38:59.967Z,12.30
2022-11-07T22:41:29.239Z,12.40
2022-11-07T22:43:58.012Z,12.40
2022-11-07T22:46:30.689Z,12.30
2022-11-07T22:48:59.172Z,12.30
2022-11-07T22:51:30.721Z,12.20
2022-11-07T22:54:02.752Z,12.30
2022-11-07T22:56:30.635Z,12.20
2022-11-07T22:58:58.577Z,12.20
2022-11-07T23:01:35.223Z,12.20
2022-11-07T23:04:03.284Z,12.20
2022-11-07T23:06:31.259Z,12.20
2022-11-07T23:09:00.442Z,12.20
2022-11-07T23:11:47.971Z,12.20
2022-11-07T23:14:19.768Z,12.10
2022-11-07T23:16:52.505Z,12.10
2022-11-07T23:19:22.845Z,12.10
2022-11-07T23:21:51.971Z,12.10
2022-11-07T23:24:20.759Z,12.10
2022-11-07T23:26:49.239Z,12.00
2022-11-07T23:29:20.355Z,12.00
2022-11-07T23:31:49.949Z,12.00
2022-11-07T23:34:19.353Z,12.00
2022-11-07T23:36:49.574Z,12.00
2022-11-07T23:39:20.509Z,11.90
2022-11-07T23:41:48.107Z,11.90
2022-11-07T23:44:15.919Z,11.90
2022-11-07T23:47:02.982Z,11.80
2022-11-07T23:49:49.308Z,11.80
2022-11-07T23:52:17.747Z,11.80
2022-11-07T23:55:03.829Z,11.80
2022-11-07T23:57:56.122Z,11.80
